Southwest Ranches, Florida
Current Conditions -  °F | °C
As of 10:20 PM on Friday 24 Oct 2014 (Local Time) from KHWO Reporting Station
Broken Clouds Broken Clouds  
Wind Chill: 75°   Ceiling: 2700
Heat Index: 75°   Visibility: 10mi
Dew Point: 69°   Wind: 8mph
Humidity: 82%   Direction: 350°N
Pressure: 29.87"   Gusts: NA
Location:  26.0551°N, 80.3691°W
Report Text: KHWO 250220Z AUTO 35007KT 10SM BKN027 BKN032 BKN044 24/21 A2987 RMK AO2 T02390206
Loading
Personal Weather Stations






























Interactive Weather Map
Tropical Storm Tracking
New forecast layout! Learn more

10-Day Weather Forecast

Advertisements
Track Severe Weather on mobile